createdAt,value
2017-08-07T00:00:30.023Z,75.56
2017-08-07T00:01:10.412Z,75.27
2017-08-07T00:01:50.804Z,75.37
2017-08-07T00:02:31.247Z,75.47
2017-08-07T00:03:11.603Z,75.27
2017-08-07T00:03:52.095Z,75.47
2017-08-07T00:04:32.906Z,74.9
2017-08-07T00:05:12.835Z,75.27
2017-08-07T00:05:53.245Z,75.56
2017-08-07T00:06:33.686Z,75.18
2017-08-07T00:07:14.085Z,75.37
2017-08-07T00:07:54.588Z,75.66
2017-08-07T00:08:35.328Z,76.2
2017-08-07T00:09:15.681Z,76.39
2017-08-07T00:09:56.073Z,76.57
2017-08-07T00:10:36.527Z,77.44
2017-08-07T00:11:16.897Z,76.77
2017-08-07T00:11:57.268Z,77.53
2017-08-07T00:12:37.641Z,77.53
2017-08-07T00:13:18.060Z,77.53
2017-08-07T00:13:58.439Z,77.63
2017-08-07T00:14:38.864Z,77.44
2017-08-07T00:15:19.324Z,77.15
2017-08-07T00:15:59.677Z,77.25
2017-08-07T00:16:40.090Z,77.06
2017-08-07T00:17:20.525Z,77.06
2017-08-07T00:18:00.941Z,77.53
2017-08-07T00:18:41.337Z,77.63
2017-08-07T00:19:22.177Z,77.34
2017-08-07T00:20:02.711Z,77.34
2017-08-07T00:20:43.286Z,76.86
2017-08-07T00:21:23.580Z,77.25
2017-08-07T00:22:04.010Z,77.06
2017-08-07T00:22:44.399Z,77.34
2017-08-07T00:23:24.828Z,76.96
2017-08-07T00:24:05.343Z,77.15
2017-08-07T00:24:45.705Z,77.06
2017-08-07T00:25:26.151Z,77.06
2017-08-07T00:26:06.534Z,77.53
2017-08-07T00:26:47.017Z,77.25
2017-08-07T00:27:27.324Z,77.72
2017-08-07T00:28:07.862Z,77.44
2017-08-07T00:28:48.286Z,77.25
2017-08-07T00:29:28.704Z,77.63
2017-08-07T00:30:09.085Z,77.72
2017-08-07T00:30:49.538Z,77.82
2017-08-07T00:31:29.871Z,78.01
2017-08-07T00:32:10.302Z,78.01
2017-08-07T00:32:50.798Z,78.01
2017-08-07T00:33:31.186Z,78.11
2017-08-07T00:34:11.532Z,79.06
2017-08-07T00:34:52.087Z,78.2
2017-08-07T00:35:32.530Z,78.39
2017-08-07T00:36:12.947Z,78.01
2017-08-07T00:36:53.390Z,78.3
2017-08-07T00:37:33.750Z,78.3
2017-08-07T00:38:14.287Z,78.58
2017-08-07T00:38:54.728Z,78.49
2017-08-07T00:39:35.360Z,78.49
2017-08-07T00:40:15.512Z,78.83
2017-08-07T00:40:55.925Z,78.78
2017-08-07T00:41:36.373Z,78.83
2017-08-07T00:42:16.856Z,79.02
2017-08-07T00:42:57.313Z,79.41
2017-08-07T00:43:37.689Z,78.74
2017-08-07T00:44:18.104Z,78.83
2017-08-07T00:44:58.497Z,79.31
2017-08-07T00:45:38.981Z,78.45
2017-08-07T00:46:19.819Z,78.87
2017-08-07T00:46:59.939Z,79.06
2017-08-07T00:47:40.472Z,78.87
2017-08-07T00:48:20.911Z,78.97
2017-08-07T00:49:01.368Z,78.2
2017-08-07T00:49:41.738Z,78.2
2017-08-07T00:50:24.941Z,78.3
2017-08-07T00:51:47.232Z,78.11
2017-08-07T00:52:28.251Z,77.63
2017-08-07T00:53:08.823Z,77.44
2017-08-07T00:53:49.219Z,77.63
2017-08-07T00:54:29.635Z,78.01
2017-08-07T00:55:10.695Z,77.15
2017-08-07T00:55:50.775Z,77.34
2017-08-07T00:56:31.310Z,77.25
2017-08-07T00:57:12.188Z,77.34
2017-08-07T00:57:53.480Z,77.63
2017-08-07T00:58:33.950Z,77.63
2017-08-07T00:59:14.628Z,77.25
2017-08-07T00:59:55.212Z,77.34
2017-08-07T01:00:35.681Z,77.63
2017-08-07T01:01:16.597Z,77.15
2017-08-07T01:01:57.485Z,77.34
2017-08-07T01:02:38.343Z,77.59
2017-08-07T01:03:18.889Z,78.07
2017-08-07T01:03:59.650Z,77.97
2017-08-07T01:04:39.818Z,77.59
2017-08-07T01:05:20.178Z,78.07
2017-08-07T01:06:00.630Z,77.97
2017-08-07T01:06:41.116Z,77.21
2017-08-07T01:07:21.429Z,78.07
2017-08-07T01:08:02.128Z,78.07
2017-08-07T01:08:42.551Z,78.74
2017-08-07T01:09:22.953Z,78.36
2017-08-07T01:10:03.647Z,79.02
2017-08-07T01:10:43.873Z,78.83
2017-08-07T01:11:24.263Z,78.83
2017-08-07T01:12:04.692Z,79.02
2017-08-07T01:12:46.636Z,78.93
2017-08-07T01:15:11.560Z,78.64
2017-08-07T01:16:03.310Z,78.55
2017-08-07T01:16:55.989Z,78.16
2017-08-07T01:17:49.683Z,78.36
2017-08-07T01:18:41.970Z,78.16
2017-08-07T01:19:36.130Z,77.72
2017-08-07T01:20:29.720Z,77.72
2017-08-07T01:21:22.787Z,77.63
2017-08-07T01:22:14.672Z,77.97
2017-08-07T01:22:55.349Z,78.36
2017-08-07T01:23:35.677Z,77.59
2017-08-07T01:24:16.054Z,77.78
2017-08-07T01:24:56.514Z,77.87
2017-08-07T01:25:36.900Z,78.16
2017-08-07T01:26:17.347Z,78.07
2017-08-07T01:26:57.754Z,78.26
2017-08-07T01:27:38.206Z,78.26
2017-08-07T01:28:18.675Z,78.93
2017-08-07T01:28:59.060Z,78.45
2017-08-07T01:29:39.440Z,78.93
2017-08-07T01:30:19.737Z,78.83
2017-08-07T01:31:00.387Z,78.55
2017-08-07T01:31:40.819Z,78.83
2017-08-07T01:32:21.177Z,78.74
2017-08-07T01:33:01.691Z,78.74
2017-08-07T01:33:42.082Z,79.41
2017-08-07T01:34:22.515Z,78.83
2017-08-07T01:35:02.978Z,78.7
2017-08-07T01:35:43.239Z,79.5
2017-08-07T01:36:23.803Z,79.5
2017-08-07T01:37:04.117Z,79.5
2017-08-07T01:37:45.233Z,79.22
2017-08-07T01:38:25.406Z,79.27
2017-08-07T01:39:05.852Z,79.31
2017-08-07T01:39:46.538Z,79.22
2017-08-07T01:40:26.925Z,79.22
2017-08-07T01:41:07.349Z,79.12
2017-08-07T01:41:47.724Z,78.83
2017-08-07T01:42:28.086Z,79.08
2017-08-07T01:43:08.502Z,79.46
2017-08-07T01:43:49.030Z,79.36
2017-08-07T01:44:29.448Z,80.41
2017-08-07T01:45:09.907Z,79.36
2017-08-07T01:45:50.261Z,79.27
2017-08-07T01:46:30.673Z,79.85
2017-08-07T01:47:11.305Z,80.04
2017-08-07T01:47:51.729Z,80.22
2017-08-07T01:48:32.123Z,80.32
2017-08-07T01:49:12.485Z,80.13
2017-08-07T01:49:52.877Z,80.7
2017-08-07T01:50:33.263Z,79.75
2017-08-07T01:51:13.615Z,80.41
2017-08-07T01:51:54.087Z,79.98
2017-08-07T01:52:34.424Z,80.13
2017-08-07T01:53:14.975Z,79.85
2017-08-07T01:53:55.350Z,79.36
2017-08-07T01:54:35.730Z,79.27
2017-08-07T01:55:16.061Z,79.46
2017-08-07T01:55:56.507Z,79.36
2017-08-07T01:56:36.955Z,79.75
2017-08-07T01:57:17.287Z,80.9
2017-08-07T01:57:57.796Z,80.7
2017-08-07T01:58:38.147Z,80.22
2017-08-07T01:59:18.629Z,80.41
2017-08-07T01:59:59.064Z,80.32
2017-08-07T02:00:39.353Z,80.32
2017-08-07T02:01:19.963Z,80.32
2017-08-07T02:02:00.250Z,80.7
2017-08-07T02:02:40.619Z,80.41
2017-08-07T02:03:21.078Z,80.13
2017-08-07T02:04:01.334Z,80.22
2017-08-07T02:04:41.783Z,80.04
2017-08-07T02:05:22.136Z,80.41
2017-08-07T02:06:02.610Z,80.32
2017-08-07T02:06:43.036Z,80.41
2017-08-07T02:07:23.381Z,80.8
2017-08-07T02:08:03.996Z,80.32
2017-08-07T02:08:44.385Z,80.32
2017-08-07T02:09:24.817Z,80.32
2017-08-07T02:10:05.163Z,80.41
2017-08-07T02:10:45.541Z,80.61
2017-08-07T02:11:26.034Z,80.61
2017-08-07T02:12:06.545Z,79.65
2017-08-07T02:12:46.912Z,79.85
2017-08-07T02:13:27.349Z,79.27
2017-08-07T02:14:07.758Z,79.65
2017-08-07T02:14:48.166Z,80.32
2017-08-07T02:15:28.692Z,79.85
2017-08-07T02:16:08.987Z,79.94
2017-08-07T02:16:49.339Z,80.32
2017-08-07T02:17:29.840Z,79.75
2017-08-07T02:18:10.422Z,80.04
2017-08-07T02:18:50.762Z,80.04
2017-08-07T02:19:31.317Z,80.41
2017-08-07T02:20:11.780Z,79.46
2017-08-07T02:20:52.239Z,79.46
2017-08-07T02:21:32.649Z,79.85
2017-08-07T02:22:13.009Z,79.75
2017-08-07T02:22:53.405Z,80.22
2017-08-07T02:23:33.804Z,80.22
2017-08-07T02:24:14.269Z,80.7
2017-08-07T02:24:54.710Z,80.22
2017-08-07T02:25:35.273Z,80.8
2017-08-07T02:26:15.653Z,80.9
2017-08-07T02:26:56.092Z,80.8
2017-08-07T02:27:36.454Z,80.7
2017-08-07T02:28:16.908Z,80.04
2017-08-07T02:28:57.301Z,79.75
2017-08-07T02:29:37.672Z,79.75
2017-08-07T02:30:18.125Z,80.04
2017-08-07T02:30:58.632Z,80.51
2017-08-07T02:31:38.978Z,81.37
2017-08-07T02:32:19.346Z,81.47
2017-08-07T02:32:59.761Z,81.18
2017-08-07T02:33:40.191Z,81.27
2017-08-07T02:34:20.596Z,81.24
2017-08-07T02:35:01.039Z,81.33
2017-08-07T02:35:41.421Z,80.95
2017-08-07T02:36:21.906Z,82
2017-08-07T02:37:02.318Z,81.43
2017-08-07T02:37:42.780Z,81.33
2017-08-07T02:38:23.119Z,81.33
2017-08-07T02:39:03.561Z,82.09
2017-08-07T02:39:43.936Z,81.71
2017-08-07T02:40:24.392Z,81.52
2017-08-07T02:41:04.787Z,81.24
2017-08-07T02:41:45.092Z,82.19
2017-08-07T02:42:25.519Z,82.48
2017-08-07T02:43:05.881Z,81.62
2017-08-07T02:43:46.275Z,81.33
2017-08-07T02:44:26.690Z,81.71
2017-08-07T02:45:07.121Z,81.71
2017-08-07T02:45:47.540Z,82.38
2017-08-07T02:46:28.054Z,82.19
2017-08-07T02:47:08.484Z,82.09
2017-08-07T02:47:48.906Z,82.57
2017-08-07T02:48:29.354Z,82.86
2017-08-07T02:49:09.815Z,82.95
2017-08-07T02:49:50.275Z,82.57
2017-08-07T02:50:30.695Z,82.67
2017-08-07T02:51:11.020Z,82
2017-08-07T02:51:51.472Z,82
2017-08-07T02:52:31.848Z,82.19
2017-08-07T02:53:12.248Z,82.38
2017-08-07T02:53:52.705Z,82.67
2017-08-07T02:54:33.108Z,82.57
2017-08-07T02:55:13.539Z,82.38
2017-08-07T02:55:53.903Z,82.67
2017-08-07T02:56:34.601Z,82.67
2017-08-07T02:57:14.907Z,83.14
2017-08-07T02:57:55.355Z,82.86
2017-08-07T02:58:35.971Z,82.48
2017-08-07T02:59:16.337Z,83.24
2017-08-07T02:59:56.814Z,83.62
2017-08-07T03:00:37.240Z,83.53
2017-08-07T03:01:17.586Z,83.62
2017-08-07T03:01:58.042Z,83.34
2017-08-07T03:02:38.577Z,82.76
2017-08-07T03:03:18.941Z,82.19
2017-08-07T03:03:59.332Z,82.57
2017-08-07T03:04:39.699Z,82.67
2017-08-07T03:05:20.042Z,82.29
2017-08-07T03:06:00.540Z,82.38
2017-08-07T03:06:40.952Z,82.29
2017-08-07T03:07:21.391Z,82.19
2017-08-07T03:08:01.798Z,82.86
2017-08-07T03:08:42.152Z,83.24
2017-08-07T03:09:22.501Z,82.67
2017-08-07T03:10:02.990Z,82.19
2017-08-07T03:10:43.417Z,81.71
2017-08-07T03:11:23.800Z,82.38
2017-08-07T03:12:04.201Z,82.48
2017-08-07T03:12:44.543Z,82.19
2017-08-07T03:13:24.932Z,82.19
2017-08-07T03:14:05.446Z,83.05
2017-08-07T03:14:45.865Z,82.86
2017-08-07T03:15:26.273Z,82.09
2017-08-07T03:16:06.811Z,82.48
2017-08-07T03:16:47.178Z,82.19
2017-08-07T03:17:27.643Z,81.81
2017-08-07T03:18:08.109Z,81.14
2017-08-07T03:18:48.467Z,81.62
2017-08-07T03:19:28.964Z,81.52
2017-08-07T03:20:09.394Z,81.52
2017-08-07T03:20:49.767Z,81.71
2017-08-07T03:21:30.224Z,82.19
2017-08-07T03:22:10.629Z,81.33
2017-08-07T03:22:50.967Z,81.14
2017-08-07T03:23:31.429Z,81.33
2017-08-07T03:24:11.937Z,82.38
2017-08-07T03:24:52.456Z,82.38
2017-08-07T03:25:32.913Z,81.62
2017-08-07T03:26:13.304Z,82.19
2017-08-07T03:26:53.747Z,82.19
2017-08-07T03:27:34.046Z,82.19
2017-08-07T03:28:14.437Z,82.09
2017-08-07T03:28:54.850Z,81.43
2017-08-07T03:29:35.292Z,81.24
2017-08-07T03:30:15.724Z,81.71
2017-08-07T03:30:56.093Z,82
2017-08-07T03:31:36.485Z,81.43
2017-08-07T03:32:16.879Z,81.43
2017-08-07T03:32:57.333Z,81.52
2017-08-07T03:33:37.868Z,82.67
2017-08-07T03:34:18.224Z,82.48
2017-08-07T03:34:58.576Z,82.86
2017-08-07T03:35:39.023Z,82.38
2017-08-07T03:36:19.399Z,82.38
2017-08-07T03:36:59.875Z,82.48
2017-08-07T03:37:40.266Z,82.82
2017-08-07T03:38:20.654Z,83.34
2017-08-07T03:39:01.034Z,84.2
2017-08-07T03:39:41.371Z,83.53
2017-08-07T03:40:21.898Z,82.76
2017-08-07T03:41:02.286Z,82.86
2017-08-07T03:41:42.678Z,82.76
2017-08-07T03:42:23.051Z,82.29
2017-08-07T03:43:03.526Z,81.52
2017-08-07T03:43:43.845Z,82.19
2017-08-07T03:44:24.316Z,81.81
2017-08-07T03:45:04.638Z,82
2017-08-07T03:45:45.089Z,82.63
2017-08-07T03:46:25.520Z,83.05
2017-08-07T03:47:06.098Z,83.14
2017-08-07T03:47:46.324Z,83.29
2017-08-07T03:48:26.833Z,83.87
2017-08-07T03:49:07.157Z,83.29
2017-08-07T03:49:47.667Z,83.77
2017-08-07T03:50:28.118Z,83.96
2017-08-07T03:51:08.494Z,83.58
2017-08-07T03:51:48.974Z,83.48
2017-08-07T03:52:30.070Z,84.06
2017-08-07T03:53:11.270Z,84.34
2017-08-07T03:53:51.421Z,84.16
2017-08-07T03:54:32.268Z,83.96
2017-08-07T03:55:12.646Z,84.72
2017-08-07T03:55:52.955Z,84.16
2017-08-07T03:56:33.723Z,84.53
2017-08-07T03:57:13.954Z,85.01
2017-08-07T03:57:54.283Z,84.82
2017-08-07T03:58:34.940Z,85.58
2017-08-07T03:59:15.377Z,85.87
2017-08-07T03:59:55.794Z,85.77
2017-08-07T04:00:36.352Z,85.3
2017-08-07T04:01:16.791Z,85.01
2017-08-07T04:01:57.023Z,84.25
2017-08-07T04:02:37.629Z,84.82
2017-08-07T04:03:18.017Z,85.21
2017-08-07T04:03:58.537Z,84.92
2017-08-07T04:04:39.523Z,84.63
2017-08-07T04:05:19.975Z,85.01
2017-08-07T04:06:00.348Z,85.68
2017-08-07T04:06:40.658Z,85.21
2017-08-07T04:07:21.163Z,85.01
2017-08-07T04:08:01.645Z,85.21
2017-08-07T04:08:42.018Z,84.82
2017-08-07T04:09:22.582Z,85.21
2017-08-07T04:10:02.961Z,84.82
2017-08-07T04:10:43.313Z,85.3
2017-08-07T04:11:23.888Z,85.01
2017-08-07T04:12:04.260Z,84.92
2017-08-07T04:12:44.916Z,84.82
2017-08-07T04:13:25.440Z,84.53
2017-08-07T04:14:05.928Z,85.11
2017-08-07T04:14:46.350Z,84.92
2017-08-07T04:15:26.756Z,84.06
2017-08-07T04:16:07.291Z,84.16
2017-08-07T04:16:47.633Z,84.82
2017-08-07T04:17:28.113Z,85.11
2017-08-07T04:18:08.630Z,85.77
2017-08-07T04:18:49.274Z,85.21
2017-08-07T04:19:29.486Z,85.01
2017-08-07T04:20:09.824Z,83.87
2017-08-07T04:20:50.241Z,84.72
2017-08-07T04:21:30.683Z,84.06
2017-08-07T04:22:11.169Z,83.48
2017-08-07T04:22:51.529Z,83.48
2017-08-07T04:23:31.920Z,83.48
2017-08-07T04:24:12.485Z,83.48
2017-08-07T04:24:53.153Z,84.39
2017-08-07T04:25:33.671Z,83.53
2017-08-07T04:26:14.155Z,83.34
2017-08-07T04:26:54.622Z,82.95
2017-08-07T04:27:35.177Z,83.34
2017-08-07T04:28:15.609Z,83.34
2017-08-07T04:28:55.950Z,84
2017-08-07T04:29:36.522Z,83.91
2017-08-07T04:30:16.901Z,83.05
2017-08-07T04:30:57.418Z,83.14
2017-08-07T04:31:37.843Z,82.61
2017-08-07T04:32:18.250Z,81.95
2017-08-07T04:32:58.664Z,81.56
2017-08-07T04:33:39.084Z,80.7
2017-08-07T04:34:19.452Z,80.7
2017-08-07T04:34:59.840Z,81.47
2017-08-07T04:35:40.247Z,80.41
2017-08-07T04:36:20.668Z,79.56
2017-08-07T04:37:01.146Z,80.04
2017-08-07T04:37:41.562Z,79.75
2017-08-07T04:38:22.080Z,79.36
2017-08-07T04:39:02.637Z,78.83
2017-08-07T04:39:43.035Z,78.45
2017-08-07T04:40:23.453Z,78.93
2017-08-07T04:41:03.913Z,78.93
2017-08-07T04:41:44.478Z,78.45
2017-08-07T04:42:24.810Z,78.36
2017-08-07T04:43:05.291Z,77.5
2017-08-07T04:43:45.595Z,77.78
2017-08-07T04:44:26.015Z,77.25
2017-08-07T04:45:06.500Z,76.77
2017-08-07T04:45:46.900Z,76.77
2017-08-07T04:46:27.325Z,76.86
2017-08-07T04:47:07.902Z,76.86
2017-08-07T04:47:48.168Z,76.77
2017-08-07T04:48:28.610Z,75.76
2017-08-07T04:49:09.033Z,75.37
2017-08-07T04:49:49.399Z,74.41
2017-08-07T04:50:29.852Z,74.51
2017-08-07T04:51:11.068Z,73.46
2017-08-07T04:51:51.610Z,73.4
2017-08-07T04:52:32.152Z,72.83
2017-08-07T04:53:12.880Z,71.77
2017-08-07T04:54:04.307Z,71.14
2017-08-07T04:54:44.988Z,70.37
2017-08-07T04:55:25.338Z,70.37
2017-08-07T04:56:05.757Z,70.66
2017-08-07T04:56:46.221Z,70.09
2017-08-07T04:57:26.573Z,69.42
2017-08-07T04:58:07.103Z,69.54
2017-08-07T04:58:47.403Z,69.35
2017-08-07T04:59:27.842Z,69.45
2017-08-07T05:00:08.314Z,68.87
2017-08-07T05:00:48.706Z,68.59
2017-08-07T05:01:29.049Z,68.11
2017-08-07T05:02:09.639Z,67.82
2017-08-07T05:02:50.090Z,67.44
2017-08-07T05:03:30.434Z,67.47
2017-08-07T05:04:11.219Z,66.86
2017-08-07T05:04:55.324Z,66.71
2017-08-07T05:05:35.727Z,66.13
2017-08-07T05:06:16.077Z,66.03
2017-08-07T05:06:56.501Z,65.36
2017-08-07T05:07:36.956Z,65.3
2017-08-07T05:08:17.301Z,65.11
2017-08-07T05:08:57.659Z,64.34
2017-08-07T05:09:38.132Z,63.48
2017-08-07T05:10:18.458Z,63.22
2017-08-07T05:10:58.889Z,63.03
2017-08-07T05:11:39.373Z,63.03
2017-08-07T05:12:19.917Z,62.65
2017-08-07T05:13:00.245Z,62.65
2017-08-07T05:17:26.119Z,59.54
2017-08-07T05:18:08.540Z,59.16
2017-08-07T05:18:49.032Z,58.67
2017-08-07T05:19:30.259Z,57.9
2017-08-07T05:20:11.032Z,58.13
2017-08-07T05:20:51.314Z,57.81
2017-08-07T05:21:31.784Z,57.65
2017-08-07T05:22:12.237Z,56.78
2017-08-07T05:22:52.641Z,56.88
2017-08-07T05:23:33.088Z,57.26
2017-08-07T05:24:13.715Z,56.88
2017-08-07T05:24:54.107Z,56.59
2017-08-07T05:25:34.483Z,56.78
2017-08-07T05:26:15.090Z,57.07
2017-08-07T05:26:55.538Z,56.23
2017-08-07T05:27:36.970Z,56.14
2017-08-07T05:28:17.810Z,55.76
2017-08-07T05:28:57.959Z,54.69
2017-08-07T05:29:40.593Z,54.69
2017-08-07T05:30:21.011Z,54.24
2017-08-07T05:31:02.330Z,54.43
2017-08-07T05:31:42.666Z,54.72
2017-08-07T05:32:23.914Z,54.14
2017-08-07T05:33:04.643Z,54.24
2017-08-07T05:33:46.114Z,54.14
2017-08-07T05:34:26.753Z,53.19
2017-08-07T05:36:10.490Z,52.63
2017-08-07T05:36:52.169Z,52.18
2017-08-07T05:37:32.753Z,51.6
2017-08-07T05:38:14.157Z,51.05
2017-08-07T05:38:55.244Z,50.66
2017-08-07T05:39:36.661Z,50.09
2017-08-07T05:40:18.027Z,50.11
2017-08-07T05:41:00.065Z,49.53
2017-08-07T05:41:45.186Z,49.63
2017-08-07T05:42:26.377Z,49.15
2017-08-07T05:43:07.024Z,47.92
2017-08-07T05:43:48.713Z,47.53
2017-08-07T05:44:30.554Z,48.01
2017-08-07T05:45:11.109Z,47.34
2017-08-07T05:45:53.285Z,46.56
2017-08-07T05:47:00.967Z,46.69
2017-08-07T05:48:36.941Z,45.62
2017-08-07T05:49:30.781Z,45.26
2017-08-07T05:50:11.590Z,45.55
2017-08-07T05:50:51.586Z,44.68
2017-08-07T05:51:33.363Z,44.22
2017-08-07T05:52:13.884Z,43.54
2017-08-07T05:52:54.045Z,43.47
2017-08-07T05:53:34.411Z,43.18
2017-08-07T05:54:15.031Z,43.08
2017-08-07T05:54:55.499Z,42.5
2017-08-07T05:55:36.109Z,42.5
2017-08-07T05:56:17.209Z,41.85
2017-08-07T05:56:58.635Z,41.36
2017-08-07T05:57:39.013Z,41.36
2017-08-07T05:58:19.806Z,40.88
2017-08-07T05:58:59.913Z,40.5
2017-08-07T05:59:40.384Z,40.4
2017-08-07T06:00:20.853Z,40.59
2017-08-07T06:01:01.255Z,40.32
2017-08-07T06:01:44.294Z,39.74
2017-08-07T06:02:26.092Z,39.45
2017-08-07T06:03:08.494Z,39.47
2017-08-07T06:03:48.898Z,39.09
2017-08-07T06:04:29.488Z,38.31
2017-08-07T06:07:36.124Z,38.2
2017-08-07T06:08:25.919Z,38
2017-08-07T06:09:06.325Z,38.29
2017-08-07T06:09:46.826Z,37.81
2017-08-07T06:10:27.342Z,37.92
2017-08-07T06:11:07.896Z,37.62
2017-08-07T06:11:48.258Z,37.34
2017-08-07T06:12:28.626Z,36.96
2017-08-07T06:13:09.102Z,37.34
2017-08-07T06:13:49.483Z,37.34
2017-08-07T06:14:29.985Z,36.3
2017-08-07T06:15:10.402Z,36.76
2017-08-07T06:15:50.805Z,36.38
2017-08-07T06:16:31.200Z,36.3
2017-08-07T06:17:11.610Z,36.2
2017-08-07T06:17:52.105Z,35.93
2017-08-07T06:18:32.523Z,35.44
2017-08-07T06:19:13.023Z,35.73
2017-08-07T06:19:53.439Z,35.25
2017-08-07T06:20:33.851Z,34.86
2017-08-07T06:21:14.296Z,35.35
2017-08-07T06:21:54.651Z,35.25
2017-08-07T06:22:35.107Z,35.44
2017-08-07T06:23:15.698Z,35.54
2017-08-07T06:23:56.109Z,35.15
2017-08-07T06:24:36.582Z,34.69
2017-08-07T06:25:16.894Z,34.3
2017-08-07T06:25:58.844Z,34.11
2017-08-07T06:26:39.589Z,34.11
2017-08-07T06:27:20.212Z,33.81
2017-08-07T06:28:00.287Z,34.2
2017-08-07T06:28:40.690Z,34.2
2017-08-07T06:29:21.081Z,33.81
2017-08-07T06:30:01.633Z,33.62
2017-08-07T06:30:42.038Z,33.06
2017-08-07T06:31:22.498Z,32.97
2017-08-07T06:32:02.832Z,32.1
2017-08-07T06:32:43.349Z,31.81
2017-08-07T06:33:23.717Z,31.63
2017-08-07T06:34:04.327Z,31.53
2017-08-07T06:34:44.776Z,30.58
2017-08-07T06:35:25.334Z,29.72
2017-08-07T06:36:05.738Z,29.91
2017-08-07T06:36:46.134Z,29.05
2017-08-07T06:37:26.532Z,28.97
2017-08-07T06:38:07.040Z,29.35
2017-08-07T06:38:47.678Z,29.65
2017-08-07T06:39:28.235Z,28.97
2017-08-07T06:40:08.682Z,29.18
2017-08-07T06:40:49.063Z,28.3
2017-08-07T06:41:29.570Z,28.2
2017-08-07T06:42:09.923Z,28.11
2017-08-07T06:42:50.347Z,28.2
2017-08-07T06:43:30.751Z,28.11
2017-08-07T06:44:11.289Z,28.59
2017-08-07T06:44:51.704Z,28.2
2017-08-07T06:45:32.157Z,28.2
2017-08-07T06:46:12.592Z,28.49
2017-08-07T06:46:53.080Z,29.15
2017-08-07T06:47:33.617Z,29.35
2017-08-07T06:48:14.073Z,29.54
2017-08-07T06:48:54.486Z,29.83
2017-08-07T06:49:34.889Z,29.74
2017-08-07T06:50:15.400Z,29.44
2017-08-07T06:50:55.762Z,29.06
2017-08-07T06:51:36.284Z,28.49
2017-08-07T06:52:16.668Z,28.39
2017-08-07T06:52:57.161Z,28.09
2017-08-07T06:53:37.660Z,27.92
2017-08-07T06:54:22.074Z,27.33
2017-08-07T06:55:02.449Z,27.15
2017-08-07T06:55:42.868Z,27.05
2017-08-07T06:56:23.259Z,26.86
2017-08-07T06:57:03.703Z,26.29
2017-08-07T06:57:44.051Z,25.51
2017-08-07T06:58:24.706Z,24.94
2017-08-07T06:59:05.063Z,24.94
2017-08-07T06:59:45.587Z,25.02
2017-08-07T07:00:25.902Z,25.12
2017-08-07T07:01:06.319Z,24.93
2017-08-07T07:01:46.742Z,24.94
2017-08-07T07:02:27.113Z,24.56
2017-08-07T07:03:07.557Z,24.56
2017-08-07T07:03:48.106Z,23.89
2017-08-07T07:04:28.499Z,24.28
2017-08-07T07:05:08.921Z,23.5
2017-08-07T07:05:49.322Z,23.89
2017-08-07T07:06:29.836Z,23.21
2017-08-07T07:07:10.308Z,23.4
2017-08-07T07:07:50.744Z,23.49
2017-08-07T07:08:31.227Z,23.49
2017-08-07T07:09:11.651Z,23.39
2017-08-07T07:09:52.073Z,23.69
2017-08-07T07:10:32.496Z,23.4
2017-08-07T07:11:12.906Z,22.92
2017-08-07T07:11:53.410Z,22.73
2017-08-07T07:12:33.794Z,22.25
2017-08-07T07:13:14.597Z,21.88
2017-08-07T07:13:55.066Z,21.78
2017-08-07T07:14:35.592Z,21.78
2017-08-07T07:15:16.059Z,21.59
2017-08-07T07:15:56.467Z,21
2017-08-07T07:16:37.006Z,20.42
2017-08-07T07:17:17.390Z,20.43
2017-08-07T07:17:57.871Z,20.72
2017-08-07T07:18:38.256Z,20.24
2017-08-07T07:19:18.700Z,19.96
2017-08-07T07:19:59.144Z,19.48
2017-08-07T07:20:39.655Z,19.38
2017-08-07T07:21:20.074Z,18.99
2017-08-07T07:22:01.770Z,18.7
2017-08-07T07:22:43.724Z,18.89
2017-08-07T07:23:24.048Z,18.89
2017-08-07T07:24:04.537Z,18.3
2017-08-07T07:24:44.983Z,18.6
2017-08-07T07:25:25.384Z,19.47
2017-08-07T07:26:05.915Z,18.99
2017-08-07T07:26:46.426Z,18.31
2017-08-07T07:27:26.755Z,17.73
2017-08-07T07:28:07.183Z,17.24
2017-08-07T07:28:47.670Z,17.55
2017-08-07T07:29:28.060Z,17.05
2017-08-07T07:30:08.565Z,16.38
2017-08-07T07:30:49.154Z,16.47
2017-08-07T07:31:29.908Z,16.67
2017-08-07T07:32:10.378Z,16.78
2017-08-07T07:32:50.771Z,16.28
2017-08-07T07:33:31.208Z,16.28
2017-08-07T07:34:11.601Z,15.79
2017-08-07T07:34:52.064Z,15.5
2017-08-07T07:35:32.532Z,15.7
2017-08-07T07:36:13.041Z,15.11
2017-08-07T07:36:53.486Z,14.62
2017-08-07T07:37:33.876Z,14.73
2017-08-07T07:38:14.291Z,14.64
2017-08-07T07:38:54.668Z,14.35
2017-08-07T07:39:35.110Z,14.16
2017-08-07T07:40:15.528Z,14.47
2017-08-07T07:40:55.938Z,13.97
2017-08-07T07:41:36.441Z,13.37
2017-08-07T07:42:16.899Z,13.37
2017-08-07T07:42:57.269Z,13.28
2017-08-07T07:43:37.707Z,13.39
2017-08-07T07:44:18.163Z,13.39
2017-08-07T07:44:58.528Z,12.7
2017-08-07T07:45:39.032Z,12.5
2017-08-07T07:46:19.585Z,12.3
2017-08-07T07:47:00.052Z,13
2017-08-07T07:47:40.578Z,13.2
2017-08-07T07:48:21.116Z,13.19
2017-08-07T07:49:01.608Z,12.9
2017-08-07T07:49:42.938Z,12.99
2017-08-07T07:50:23.289Z,12.81
2017-08-07T07:51:04.328Z,12.81
2017-08-07T07:51:44.694Z,13.01
2017-08-07T07:52:25.077Z,12.62
2017-08-07T07:53:05.622Z,12.32
2017-08-07T07:53:46.045Z,12.91
2017-08-07T07:54:26.479Z,12.81
2017-08-07T07:55:06.933Z,12.62
2017-08-07T07:55:47.388Z,12.41
2017-08-07T07:56:27.800Z,12.81
2017-08-07T07:57:08.385Z,13.18
2017-08-07T07:57:48.927Z,13.97
2017-08-07T07:58:29.249Z,13.49
2017-08-07T07:59:09.843Z,13.59
2017-08-07T07:59:50.308Z,13.59
2017-08-07T08:00:31.555Z,13.68
2017-08-07T08:01:12.044Z,13.59
2017-08-07T08:01:52.380Z,13.29
2017-08-07T08:02:32.762Z,13.49
2017-08-07T08:03:13.288Z,13.09
2017-08-07T08:03:53.629Z,12.8
2017-08-07T08:04:34.078Z,12.41
2017-08-07T08:05:14.698Z,12.23
2017-08-07T08:05:55.128Z,12.13
2017-08-07T08:06:35.610Z,11.84
2017-08-07T08:07:15.942Z,11.65
2017-08-07T08:07:56.415Z,11.26
2017-08-07T08:08:36.808Z,11.36
2017-08-07T08:09:17.172Z,11.35
2017-08-07T08:09:57.759Z,11.36
2017-08-07T08:10:38.310Z,11.46
2017-08-07T08:11:18.765Z,11.26
2017-08-07T08:11:59.256Z,10.86
2017-08-07T08:12:39.641Z,11.36
2017-08-07T08:13:20.002Z,10.96
2017-08-07T08:14:00.461Z,11.17
2017-08-07T08:14:41.012Z,10.68
2017-08-07T08:15:21.459Z,10.38
2017-08-07T08:16:01.877Z,10.96
2017-08-07T08:16:42.218Z,11.36
2017-08-07T08:17:28.070Z,10.96
2017-08-07T08:18:18.779Z,10.58
2017-08-07T08:18:59.216Z,10.68
2017-08-07T08:19:39.654Z,10.39
2017-08-07T08:20:20.360Z,10
2017-08-07T08:21:00.992Z,9.61
2017-08-07T08:21:41.645Z,9.22
2017-08-07T08:22:22.685Z,9.42
2017-08-07T08:23:02.904Z,8.92
2017-08-07T08:23:43.664Z,9.11
2017-08-07T08:24:24.220Z,8.92
2017-08-07T08:25:04.641Z,9.5
2017-08-07T08:25:45.056Z,9.69
2017-08-07T08:26:25.489Z,9.5
2017-08-07T08:27:06.029Z,9.6
2017-08-07T08:27:46.466Z,9.6
2017-08-07T08:28:26.915Z,9.5
2017-08-07T08:29:07.402Z,9.89
2017-08-07T08:29:47.818Z,9.4
2017-08-07T08:30:28.525Z,9.5
2017-08-07T08:31:09.142Z,9.6
2017-08-07T08:31:49.679Z,9.5
2017-08-07T08:32:30.075Z,9.31
2017-08-07T08:33:10.573Z,9.42
2017-08-07T08:33:51.525Z,8.52
2017-08-07T08:34:32.090Z,8.62
2017-08-07T08:35:17.906Z,8.53
2017-08-07T08:37:12.046Z,8.44
2017-08-07T08:38:08.987Z,8.53
2017-08-07T08:39:04.808Z,8.63
2017-08-07T08:40:00.922Z,7.54
2017-08-07T08:40:56.529Z,7.15
2017-08-07T08:41:54.585Z,7.15
2017-08-07T08:42:51.308Z,7.85
2017-08-07T08:43:53.028Z,6.85
2017-08-07T08:45:32.608Z,8.23
2017-08-07T08:46:12.932Z,8.23
2017-08-07T08:46:53.259Z,7.83
2017-08-07T08:47:33.645Z,8.13
2017-08-07T08:48:14.195Z,8.62
2017-08-07T08:48:54.563Z,8.53
2017-08-07T08:49:35.407Z,8.14
2017-08-07T08:50:19.847Z,7.75
2017-08-07T08:51:00.360Z,7.65
2017-08-07T08:51:47.553Z,7.15
2017-08-07T08:52:40.169Z,7.16
2017-08-07T08:53:31.013Z,6.17
2017-08-07T08:54:11.262Z,6.38
2017-08-07T08:54:51.712Z,6.17
2017-08-07T08:55:33.002Z,6.08
2017-08-07T08:56:12.681Z,6.08
2017-08-07T08:56:56.912Z,6.27
2017-08-07T08:57:37.932Z,5.88
2017-08-07T08:58:18.474Z,5.88
2017-08-07T08:59:00.494Z,5.58
2017-08-07T08:59:41.386Z,5.69
2017-08-07T09:00:22.169Z,5.39
2017-08-07T09:01:02.690Z,5.49
2017-08-07T09:01:43.265Z,5.19
2017-08-07T09:02:25.003Z,4.99
2017-08-07T09:03:05.720Z,5.68
2017-08-07T09:07:44.564Z,5.98